sensor_id;sensor_type;location;lat;lon;timestamp;pressure;altitude;pressure_sealevel;temperature;humidity
9523;BME280;63165;43.016;25.784;2023-09-19T06:55:58;100233.94;;;18.84;83.96
9523;BME280;63165;43.016;25.784;2023-09-19T06:58:26;100118.81;;;17.96;82.08
9523;BME280;63165;43.016;25.784;2023-09-19T07:00:53;100216.44;;;18.98;81.90
9523;BME280;63165;43.016;25.784;2023-09-19T07:03:22;100082.22;;;18.23;80.51
9523;BME280;63165;43.016;25.784;2023-09-19T07:05:52;100149.13;;;18.84;80.18
9523;BME280;63165;43.016;25.784;2023-09-19T07:08:21;100126.84;;;18.50;79.57
9523;BME280;63165;43.016;25.784;2023-09-19T07:11:06;100251.97;;;19.31;79.02
9523;BME280;63165;43.016;25.784;2023-09-19T07:13:35;100063.44;;;18.64;78.44
9523;BME280;63165;43.016;25.784;2023-09-19T07:16:06;100164.44;;;19.31;78.71
9523;BME280;63165;43.016;25.784;2023-09-19T07:18:36;100253.00;;;19.98;77.17
9523;BME280;63165;43.016;25.784;2023-09-19T07:21:10;100189.88;;;19.35;76.46
9523;BME280;63165;43.016;25.784;2023-09-19T07:23:41;100116.13;;;19.42;75.83
9523;BME280;63165;43.016;25.784;2023-09-19T07:26:12;100165.41;;;19.81;75.12
9523;BME280;63165;43.016;25.784;2023-09-19T07:28:40;100129.69;;;19.35;74.65
9523;BME280;63165;43.016;25.784;2023-09-19T07:31:08;100280.72;;;20.59;74.03
9523;BME280;63165;43.016;25.784;2023-09-19T07:33:36;100156.66;;;19.78;72.45
9523;BME280;63165;43.016;25.784;2023-09-19T07:36:04;100245.66;;;20.52;71.80
9523;BME280;63165;43.016;25.784;2023-09-19T07:38:32;100116.38;;;20.04;70.17
9523;BME280;63165;43.016;25.784;2023-09-19T07:41:01;100091.44;;;20.06;70.26
9523;BME280;63165;43.016;25.784;2023-09-19T07:43:32;100187.38;;;20.81;69.47
9523;BME280;63165;43.016;25.784;2023-09-19T07:46:04;100226.78;;;21.21;67.49
9523;BME280;63165;43.016;25.784;2023-09-19T07:48:33;100259.38;;;21.70;67.21
9523;BME280;63165;43.016;25.784;2023-09-19T07:51:03;100233.06;;;21.66;66.42
9523;BME280;63165;43.016;25.784;2023-09-19T07:53:34;100112.25;;;21.08;66.70
9523;BME280;63165;43.016;25.784;2023-09-19T07:56:04;100276.34;;;22.43;66.18
9523;BME280;63165;43.016;25.784;2023-09-19T07:58:34;100150.50;;;21.95;65.50
9523;BME280;63165;43.016;25.784;2023-09-19T08:01:04;100096.09;;;21.56;65.40
9523;BME280;63165;43.016;25.784;2023-09-19T08:03:34;100047.97;;;21.44;63.25
9523;BME280;63165;43.016;25.784;2023-09-19T08:06:14;100224.94;;;22.82;62.82
9523;BME280;63165;43.016;25.784;2023-09-19T08:08:45;100142.38;;;22.39;61.48
9523;BME280;63165;43.016;25.784;2023-09-19T08:11:20;100125.44;;;22.67;61.58
9523;BME280;63165;43.016;25.784;2023-09-19T09:41:18;100128.25;;;27.29;53.76
9523;BME280;63165;43.016;25.784;2023-09-19T09:43:56;100125.75;;;27.38;54.42
9523;BME280;63165;43.016;25.784;2023-09-19T09:47:16;100126.09;;;27.44;53.87
9523;BME280;63165;43.016;25.784;2023-09-19T09:50:12;100126.13;;;27.54;53.37
9523;BME280;63165;43.016;25.784;2023-09-19T09:52:46;100121.63;;;27.64;52.60
9523;BME280;63165;43.016;25.784;2023-09-19T09:55:17;100111.81;;;27.75;53.03
9523;BME280;63165;43.016;25.784;2023-09-19T10:01:04;100107.38;;;27.95;51.68
9523;BME280;63165;43.016;25.784;2023-09-19T10:03:41;100109.63;;;27.90;51.89
9523;BME280;63165;43.016;25.784;2023-09-19T10:06:13;100121.81;;;27.94;51.97
9523;BME280;63165;43.016;25.784;2023-09-19T10:09:06;100127.50;;;28.00;51.95
9523;BME280;63165;43.016;25.784;2023-09-19T10:12:03;100122.13;;;28.00;51.18
9523;BME280;63165;43.016;25.784;2023-09-19T10:14:52;100113.94;;;28.12;50.82
9523;BME280;63165;43.016;25.784;2023-09-19T10:17:24;100116.53;;;28.23;50.43
9523;BME280;63165;43.016;25.784;2023-09-19T10:19:54;100120.78;;;28.35;49.88
9523;BME280;63165;43.016;25.784;2023-09-19T10:22:22;100110.59;;;28.49;49.90
9523;BME280;63165;43.016;25.784;2023-09-19T10:24:50;100105.28;;;28.58;49.47
9523;BME280;63165;43.016;25.784;2023-09-19T10:27:19;100103.16;;;28.72;48.97
9523;BME280;63165;43.016;25.784;2023-09-19T10:29:48;100098.91;;;28.79;48.55
9523;BME280;63165;43.016;25.784;2023-09-19T10:32:16;100095.06;;;28.81;46.58
9523;BME280;63165;43.016;25.784;2023-09-19T10:34:45;100083.47;;;28.81;47.86
9523;BME280;63165;43.016;25.784;2023-09-19T10:37:13;100082.75;;;28.79;46.98
9523;BME280;63165;43.016;25.784;2023-09-19T10:39:44;100084.72;;;28.87;47.02
9523;BME280;63165;43.016;25.784;2023-09-19T10:42:13;100092.66;;;28.98;47.07
9523;BME280;63165;43.016;25.784;2023-09-19T10:44:42;100092.63;;;29.08;46.44
9523;BME280;63165;43.016;25.784;2023-09-19T10:47:12;100085.41;;;29.08;46.73
9523;BME280;63165;43.016;25.784;2023-09-19T10:49:43;100083.72;;;29.07;46.82
9523;BME280;63165;43.016;25.784;2023-09-19T10:52:14;100086.81;;;29.02;46.66
9523;BME280;63165;43.016;25.784;2023-09-19T10:54:45;100088.84;;;28.91;46.25
9523;BME280;63165;43.016;25.784;2023-09-19T10:57:18;100088.00;;;28.80;45.94
9523;BME280;63165;43.016;25.784;2023-09-19T11:00:00;100082.63;;;28.80;45.74
9523;BME280;63165;43.016;25.784;2023-09-19T11:05:30;100078.75;;;29.12;44.96
9523;BME280;63165;43.016;25.784;2023-09-19T11:07:58;100082.16;;;29.24;44.52
9523;BME280;63165;43.016;25.784;2023-09-19T11:10:45;100076.88;;;29.32;39.68
9523;BME280;63165;43.016;25.784;2023-09-19T11:13:25;100078.63;;;29.23;41.71
9523;BME280;63165;43.016;25.784;2023-09-19T11:18:52;100077.63;;;29.15;41.41
9523;BME280;63165;43.016;25.784;2023-09-19T11:27:12;100067.97;;;29.22;42.02
9523;BME280;63165;43.016;25.784;2023-09-19T11:29:42;100062.97;;;29.37;41.81
9523;BME280;63165;43.016;25.784;2023-09-19T11:32:09;100061.09;;;29.47;41.95
9523;BME280;63165;43.016;25.784;2023-09-19T11:34:43;100060.59;;;29.61;42.02
9523;BME280;63165;43.016;25.784;2023-09-19T11:40:06;100061.97;;;29.75;41.76
9523;BME280;63165;43.016;25.784;2023-09-19T11:42:43;100055.06;;;29.63;41.63
9523;BME280;63165;43.016;25.784;2023-09-19T11:47:55;100055.50;;;29.58;40.98
9523;BME280;63165;43.016;25.784;2023-09-19T11:50:23;100057.91;;;29.61;40.99
9523;BME280;63165;43.016;25.784;2023-09-19T11:52:51;100050.38;;;29.65;41.01
9523;BME280;63165;43.016;25.784;2023-09-19T11:55:20;100047.22;;;29.70;40.52
9523;BME280;63165;43.016;25.784;2023-09-19T11:57:49;100042.41;;;29.73;40.38
9523;BME280;63165;43.016;25.784;2023-09-19T12:00:17;100042.53;;;29.82;40.35
9523;BME280;63165;43.016;25.784;2023-09-19T12:02:46;100040.59;;;29.92;40.21
9523;BME280;63165;43.016;25.784;2023-09-19T12:05:14;100039.00;;;29.99;40.29
9523;BME280;63165;43.016;25.784;2023-09-19T12:07:42;100031.00;;;30.07;39.93
9523;BME280;63165;43.016;25.784;2023-09-19T12:10:11;100024.81;;;30.15;40.27
9523;BME280;63165;43.016;25.784;2023-09-19T12:12:39;100019.19;;;30.26;39.99
9523;BME280;63165;43.016;25.784;2023-09-19T12:15:09;100014.31;;;30.40;39.67
9523;BME280;63165;43.016;25.784;2023-09-19T12:17:37;100012.16;;;30.43;39.44
9523;BME280;63165;43.016;25.784;2023-09-19T12:20:05;100009.00;;;30.48;39.46
9523;BME280;63165;43.016;25.784;2023-09-19T12:22:41;100013.06;;;30.52;39.33
9523;BME280;63165;43.016;25.784;2023-09-19T12:25:08;100006.81;;;30.51;38.88
9523;BME280;63165;43.016;25.784;2023-09-19T12:27:41;100011.06;;;30.54;39.37
9523;BME280;63165;43.016;25.784;2023-09-19T12:30:11;100004.34;;;30.58;39.00
9523;BME280;63165;43.016;25.784;2023-09-19T12:32:39;100005.75;;;30.62;39.27
9523;BME280;63165;43.016;25.784;2023-09-19T12:35:07;99998.94;;;30.58;39.20
9523;BME280;63165;43.016;25.784;2023-09-19T12:37:36;100006.03;;;30.59;38.89
9523;BME280;63165;43.016;25.784;2023-09-19T12:40:03;99999.66;;;30.60;38.95
9523;BME280;63165;43.016;25.784;2023-09-19T12:42:40;100003.72;;;30.64;38.54
9523;BME280;63165;43.016;25.784;2023-09-19T12:45:07;100005.63;;;30.72;38.27
9523;BME280;63165;43.016;25.784;2023-09-19T12:47:36;99998.59;;;30.79;37.83
9523;BME280;63165;43.016;25.784;2023-09-19T12:50:06;99996.09;;;30.86;37.39
9523;BME280;63165;43.016;25.784;2023-09-19T12:52:38;100000.94;;;30.92;36.89
9523;BME280;63165;43.016;25.784;2023-09-19T12:55:06;99996.22;;;30.94;37.15
9523;BME280;63165;43.016;25.784;2023-09-19T12:58:03;100006.00;;;30.95;37.00
9523;BME280;63165;43.016;25.784;2023-09-19T13:00:34;99997.59;;;30.98;37.05
9523;BME280;63165;43.016;25.784;2023-09-19T13:03:13;99996.03;;;30.95;37.00
9523;BME280;63165;43.016;25.784;2023-09-19T13:05:46;99993.03;;;30.99;36.50
9523;BME280;63165;43.016;25.784;2023-09-19T13:08:23;99994.56;;;31.01;36.37
9523;BME280;63165;43.016;25.784;2023-09-19T13:11:06;99985.44;;;31.02;36.38
9523;BME280;63165;43.016;25.784;2023-09-19T13:13:35;99990.00;;;31.02;33.81
9523;BME280;63165;43.016;25.784;2023-09-19T13:16:03;99991.38;;;30.88;35.77
9523;BME280;63165;43.016;25.784;2023-09-19T13:18:42;99987.03;;;30.69;35.78
9523;BME280;63165;43.016;25.784;2023-09-19T13:21:11;99980.53;;;30.53;35.89
9523;BME280;63165;43.016;25.784;2023-09-19T13:23:41;99987.16;;;30.41;36.05
9523;BME280;63165;43.016;25.784;2023-09-19T13:26:08;99988.22;;;30.30;36.11
9523;BME280;63165;43.016;25.784;2023-09-19T13:28:37;99992.16;;;30.18;36.09
9523;BME280;63165;43.016;25.784;2023-09-19T13:31:04;99989.53;;;30.08;36.38
9523;BME280;63165;43.016;25.784;2023-09-19T13:33:31;99985.59;;;30.03;36.68
9523;BME280;63165;43.016;25.784;2023-09-19T13:35:59;99985.59;;;30.03;36.30
9523;BME280;63165;43.016;25.784;2023-09-19T13:38:26;99991.38;;;30.08;36.23
9523;BME280;63165;43.016;25.784;2023-09-19T13:40:54;99980.97;;;30.13;36.60
9523;BME280;63165;43.016;25.784;2023-09-19T13:43:21;99982.19;;;30.18;36.28
9523;BME280;63165;43.016;25.784;2023-09-19T13:45:52;99988.13;;;30.22;36.30
9523;BME280;63165;43.016;25.784;2023-09-19T13:48:19;99984.44;;;30.23;35.57
9523;BME280;63165;43.016;25.784;2023-09-19T13:50:47;99983.13;;;30.27;36.13
9523;BME280;63165;43.016;25.784;2023-09-19T13:53:16;99977.13;;;30.33;35.98
9523;BME280;63165;43.016;25.784;2023-09-19T13:55:44;99983.41;;;30.34;35.57
9523;BME280;63165;43.016;25.784;2023-09-19T13:58:15;99970.41;;;30.37;35.85
9523;BME280;63165;43.016;25.784;2023-09-19T14:00:42;99978.69;;;30.36;35.98
9523;BME280;63165;43.016;25.784;2023-09-19T14:03:09;99971.84;;;30.32;35.44
9523;BME280;63165;43.016;25.784;2023-09-19T14:05:36;99975.03;;;30.27;35.82
9523;BME280;63165;43.016;25.784;2023-09-19T14:08:03;99976.03;;;30.26;35.76
9523;BME280;63165;43.016;25.784;2023-09-19T14:10:31;99974.19;;;30.27;35.74
9523;BME280;63165;43.016;25.784;2023-09-19T14:13:00;99976.91;;;30.27;35.53
9523;BME280;63165;43.016;25.784;2023-09-19T14:15:27;99961.53;;;30.27;35.74
9523;BME280;63165;43.016;25.784;2023-09-19T14:17:56;99968.09;;;30.25;35.58
9523;BME280;63165;43.016;25.784;2023-09-19T14:20:24;99964.72;;;30.23;35.14
9523;BME280;63165;43.016;25.784;2023-09-19T14:22:51;99966.69;;;30.20;35.65
9523;BME280;63165;43.016;25.784;2023-09-19T14:25:18;99970.56;;;30.18;35.12
9523;BME280;63165;43.016;25.784;2023-09-19T14:27:47;99973.75;;;30.13;35.30
9523;BME280;63165;43.016;25.784;2023-09-19T14:30:17;99970.66;;;30.08;35.67
9523;BME280;63165;43.016;25.784;2023-09-19T14:32:44;99977.03;;;30.07;35.75
9523;BME280;63165;43.016;25.784;2023-09-19T14:35:11;99970.09;;;30.05;35.70
9523;BME280;63165;43.016;25.784;2023-09-19T14:37:39;99972.09;;;30.03;35.39
9523;BME280;63165;43.016;25.784;2023-09-19T14:40:09;99968.03;;;29.98;35.57
9523;BME280;63165;43.016;25.784;2023-09-19T14:42:41;99974.34;;;29.89;35.56
9523;BME280;63165;43.016;25.784;2023-09-19T14:45:10;99976.09;;;29.80;35.60
9523;BME280;63165;43.016;25.784;2023-09-19T14:47:40;99975.97;;;29.72;35.92
9523;BME280;63165;43.016;25.784;2023-09-19T14:50:07;99970.31;;;29.66;36.12
9523;BME280;63165;43.016;25.784;2023-09-19T14:52:34;99976.47;;;29.58;35.95
9523;BME280;63165;43.016;25.784;2023-09-19T14:55:01;99971.16;;;29.48;36.34
9523;BME280;63165;43.016;25.784;2023-09-19T14:57:30;99972.03;;;29.39;36.26
9523;BME280;63165;43.016;25.784;2023-09-19T14:59:56;99969.22;;;29.31;36.21
9523;BME280;63165;43.016;25.784;2023-09-19T15:02:25;99968.97;;;29.24;36.43
9523;BME280;63165;43.016;25.784;2023-09-19T15:04:54;99975.94;;;29.17;36.51
9523;BME280;63165;43.016;25.784;2023-09-19T15:07:22;99966.72;;;29.10;36.87
9523;BME280;63165;43.016;25.784;2023-09-19T15:09:49;99967.59;;;29.00;37.00
9523;BME280;63165;43.016;25.784;2023-09-19T15:12:16;99965.50;;;28.94;37.17
9523;BME280;63165;43.016;25.784;2023-09-19T15:14:43;99973.47;;;28.86;37.25
9523;BME280;63165;43.016;25.784;2023-09-19T15:17:10;99966.28;;;28.77;37.59
9523;BME280;63165;43.016;25.784;2023-09-19T15:19:38;99970.38;;;28.61;37.88
9523;BME280;63165;43.016;25.784;2023-09-19T15:22:05;99966.13;;;28.49;38.12
9523;BME280;63165;43.016;25.784;2023-09-19T15:24:32;99971.38;;;28.41;38.56
9523;BME280;63165;43.016;25.784;2023-09-19T15:26:59;99970.25;;;28.34;38.51
9523;BME280;63165;43.016;25.784;2023-09-19T15:29:26;99961.47;;;28.22;38.99
9523;BME280;63165;43.016;25.784;2023-09-19T15:31:54;99973.19;;;28.11;39.14
9523;BME280;63165;43.016;25.784;2023-09-19T15:34:24;99970.50;;;28.01;39.57
9523;BME280;63165;43.016;25.784;2023-09-19T15:36:52;99972.34;;;27.91;39.95
9523;BME280;63165;43.016;25.784;2023-09-19T15:39:19;99969.06;;;27.78;40.25
9523;BME280;63165;43.016;25.784;2023-09-19T15:41:48;99970.84;;;27.58;40.79
9523;BME280;63165;43.016;25.784;2023-09-19T15:44:16;99968.50;;;27.34;41.19
9523;BME280;63165;43.016;25.784;2023-09-19T15:46:44;99963.44;;;27.19;41.40
9523;BME280;63165;43.016;25.784;2023-09-19T15:49:13;99969.34;;;27.13;41.92
9523;BME280;63165;43.016;25.784;2023-09-19T15:54:48;99972.47;;;26.87;42.38
9523;BME280;63165;43.016;25.784;2023-09-19T15:57:18;99978.44;;;26.70;42.88
9523;BME280;63165;43.016;25.784;2023-09-19T15:59:46;99973.91;;;26.49;43.33
9523;BME280;63165;43.016;25.784;2023-09-19T16:02:14;99976.63;;;26.38;43.61
9523;BME280;63165;43.016;25.784;2023-09-19T16:04:49;99986.88;;;26.33;43.73
9523;BME280;63165;43.016;25.784;2023-09-19T16:07:29;99974.53;;;26.21;43.67
9523;BME280;63165;43.016;25.784;2023-09-19T16:10:12;99977.09;;;26.11;44.30
9523;BME280;63165;43.016;25.784;2023-09-19T16:16:04;99978.13;;;25.87;44.72
9523;BME280;63165;43.016;25.784;2023-09-19T16:19:04;99973.63;;;25.76;45.07
9523;BME280;63165;43.016;25.784;2023-09-19T16:21:47;99980.84;;;25.65;45.00
9523;BME280;63165;43.016;25.784;2023-09-19T16:24:28;99983.44;;;25.55;45.76
9523;BME280;63165;43.016;25.784;2023-09-19T16:27:04;99993.03;;;25.46;46.20
9523;BME280;63165;43.016;25.784;2023-09-19T16:29:32;99992.78;;;25.38;46.03
9523;BME280;63165;43.016;25.784;2023-09-19T16:35:04;99987.41;;;25.15;46.75
9523;BME280;63165;43.016;25.784;2023-09-19T16:37:42;99997.13;;;25.05;47.33
9523;BME280;63165;43.016;25.784;2023-09-19T16:40:10;99994.56;;;24.92;47.61
9523;BME280;63165;43.016;25.784;2023-09-19T16:42:44;99993.81;;;24.79;48.15
9523;BME280;63165;43.016;25.784;2023-09-19T16:45:11;100000.81;;;24.69;48.32
9523;BME280;63165;43.016;25.784;2023-09-19T16:47:38;100006.75;;;24.61;48.63
9523;BME280;63165;43.016;25.784;2023-09-19T16:50:06;100006.41;;;24.54;48.96
9523;BME280;63165;43.016;25.784;2023-09-19T16:52:35;100011.41;;;24.46;49.01
9523;BME280;63165;43.016;25.784;2023-09-19T16:55:04;100019.28;;;24.36;49.53
9523;BME280;63165;43.016;25.784;2023-09-19T16:57:32;100016.66;;;24.23;49.72
9523;BME280;63165;43.016;25.784;2023-09-19T17:00:01;100017.91;;;24.07;50.22
9523;BME280;63165;43.016;25.784;2023-09-19T17:02:28;100020.53;;;23.95;50.16
9523;BME280;63165;43.016;25.784;2023-09-19T17:07:40;100016.59;;;23.75;50.61
9523;BME280;63165;43.016;25.784;2023-09-19T17:10:08;100016.50;;;23.64;51.06
9523;BME280;63165;43.016;25.784;2023-09-19T17:12:37;100014.84;;;23.50;51.82
9523;BME280;63165;43.016;25.784;2023-09-19T17:15:22;100010.91;;;23.43;52.17
9523;BME280;63165;43.016;25.784;2023-09-19T17:18:10;100013.38;;;23.33;52.29
9523;BME280;63165;43.016;25.784;2023-09-19T17:20:40;100021.06;;;23.25;52.53
9523;BME280;63165;43.016;25.784;2023-09-19T17:23:07;100024.59;;;23.13;52.75
9523;BME280;63165;43.016;25.784;2023-09-19T17:25:34;100025.97;;;23.05;53.05
9523;BME280;63165;43.016;25.784;2023-09-19T17:28:01;100039.06;;;22.96;53.38
9523;BME280;63165;43.016;25.784;2023-09-19T17:30:30;100037.44;;;22.80;54.30
9523;BME280;63165;43.016;25.784;2023-09-19T17:32:57;100026.00;;;22.65;54.73
9523;BME280;63165;43.016;25.784;2023-09-19T17:35:24;100023.72;;;22.59;54.68
9523;BME280;63165;43.016;25.784;2023-09-19T17:37:51;100022.97;;;22.57;54.64
9523;BME280;63165;43.016;25.784;2023-09-19T17:40:18;100021.91;;;22.47;55.52
9523;BME280;63165;43.016;25.784;2023-09-19T17:42:45;100024.84;;;22.42;55.24
9523;BME280;63165;43.016;25.784;2023-09-19T17:45:15;100032.53;;;22.34;55.62
9523;BME280;63165;43.016;25.784;2023-09-19T17:47:44;100040.25;;;22.24;56.14
9523;BME280;63165;43.016;25.784;2023-09-19T17:50:11;100038.19;;;22.15;56.21
9523;BME280;63165;43.016;25.784;2023-09-19T17:52:39;100044.53;;;22.13;56.58
9523;BME280;63165;43.016;25.784;2023-09-19T17:55:11;100040.19;;;22.12;56.30
9523;BME280;63165;43.016;25.784;2023-09-19T17:57:39;100043.91;;;22.09;56.89
9523;BME280;63165;43.016;25.784;2023-09-19T18:00:08;100044.94;;;22.06;57.15
9523;BME280;63165;43.016;25.784;2023-09-19T18:02:35;100051.34;;;22.04;57.05
9523;BME280;63165;43.016;25.784;2023-09-19T18:05:05;100057.59;;;22.03;57.00
9523;BME280;63165;43.016;25.784;2023-09-19T18:07:32;100068.56;;;21.98;57.67
9523;BME280;63165;43.016;25.784;2023-09-19T18:09:58;100062.41;;;21.98;57.62
9523;BME280;63165;43.016;25.784;2023-09-19T18:12:25;100074.94;;;21.96;58.14
9523;BME280;63165;43.016;25.784;2023-09-19T18:14:52;100065.34;;;21.93;58.06
9523;BME280;63165;43.016;25.784;2023-09-19T18:17:20;100068.00;;;21.93;58.01
9523;BME280;63165;43.016;25.784;2023-09-19T18:19:46;100071.91;;;21.87;58.52
9523;BME280;63165;43.016;25.784;2023-09-19T18:22:15;100079.25;;;21.84;58.49
9523;BME280;63165;43.016;25.784;2023-09-19T18:24:42;100073.06;;;21.83;58.97
9523;BME280;63165;43.016;25.784;2023-09-19T18:27:10;100063.34;;;21.82;59.32
9523;BME280;63165;43.016;25.784;2023-09-19T18:29:37;100054.81;;;21.77;59.06
9523;BME280;63165;43.016;25.784;2023-09-19T18:32:07;100056.16;;;21.70;59.53
9523;BME280;63165;43.016;25.784;2023-09-19T18:34:34;100060.59;;;21.69;60.22
9523;BME280;63165;43.016;25.784;2023-09-19T18:37:01;100054.44;;;21.69;60.13
9523;BME280;63165;43.016;25.784;2023-09-19T18:39:30;100060.91;;;21.65;60.56
9523;BME280;63165;43.016;25.784;2023-09-19T18:41:59;100061.09;;;21.62;60.45
9523;BME280;63165;43.016;25.784;2023-09-19T18:44:27;100065.47;;;21.63;60.86
9523;BME280;63165;43.016;25.784;2023-09-19T18:46:54;100071.84;;;21.60;60.20
9523;BME280;63165;43.016;25.784;2023-09-19T18:49:22;100063.09;;;21.58;61.06
9523;BME280;63165;43.016;25.784;2023-09-19T18:51:49;100064.06;;;21.57;60.58
9523;BME280;63165;43.016;25.784;2023-09-19T18:54:16;100062.41;;;21.55;60.97
9523;BME280;63165;43.016;25.784;2023-09-19T18:56:44;100066.03;;;21.54;61.10
9523;BME280;63165;43.016;25.784;2023-09-19T18:59:11;100064.22;;;21.54;61.26
9523;BME280;63165;43.016;25.784;2023-09-19T19:01:39;100062.53;;;21.53;61.18
9523;BME280;63165;43.016;25.784;2023-09-19T19:04:07;100067.09;;;21.51;61.23
9523;BME280;63165;43.016;25.784;2023-09-19T19:06:35;100067.19;;;21.49;61.81
9523;BME280;63165;43.016;25.784;2023-09-19T19:09:03;100067.38;;;21.46;61.73
9523;BME280;63165;43.016;25.784;2023-09-19T19:11:31;100068.41;;;21.44;61.71
9523;BME280;63165;43.016;25.784;2023-09-19T19:14:00;100069.41;;;21.41;61.86
9523;BME280;63165;43.016;25.784;2023-09-19T19:16:28;100064.31;;;21.38;62.00
9523;BME280;63165;43.016;25.784;2023-09-19T19:18:57;100068.75;;;21.38;62.13
9523;BME280;63165;43.016;25.784;2023-09-19T19:21:24;100063.56;;;21.36;62.59
9523;BME280;63165;43.016;25.784;2023-09-19T19:23:50;100068.75;;;21.38;62.72
9523;BME280;63165;43.016;25.784;2023-09-19T19:26:18;100065.63;;;21.31;62.83
9523;BME280;63165;43.016;25.784;2023-09-19T19:28:47;100072.19;;;21.25;62.87
9523;BME280;63165;43.016;25.784;2023-09-19T19:31:16;100064.19;;;21.25;62.90
9523;BME280;63165;43.016;25.784;2023-09-19T19:33:43;100064.38;;;21.22;63.70
9523;BME280;63165;43.016;25.784;2023-09-19T19:36:10;100064.66;;;21.18;63.54
9523;BME280;63165;43.016;25.784;2023-09-19T19:38:38;100061.59;;;21.09;63.50
9523;BME280;63165;43.016;25.784;2023-09-19T19:41:05;100072.44;;;21.06;64.20
9523;BME280;63165;43.016;25.784;2023-09-19T19:43:32;100078.78;;;21.04;63.87
9523;BME280;63165;43.016;25.784;2023-09-19T19:46:00;100077.00;;;21.04;63.84
9523;BME280;63165;43.016;25.784;2023-09-19T19:48:30;100081.44;;;21.04;64.09
9523;BME280;63165;43.016;25.784;2023-09-19T19:50:57;100078.91;;;21.02;64.02
9523;BME280;63165;43.016;25.784;2023-09-19T19:53:24;100078.22;;;20.99;64.36
9523;BME280;63165;43.016;25.784;2023-09-19T19:55:51;100078.41;;;20.96;65.12
9523;BME280;63165;43.016;25.784;2023-09-19T19:58:18;100073.25;;;20.92;64.97
9523;BME280;63165;43.016;25.784;2023-09-19T20:00:47;100077.53;;;20.95;65.17
9523;BME280;63165;43.016;25.784;2023-09-19T20:03:14;100077.72;;;20.92;65.01
9523;BME280;63165;43.016;25.784;2023-09-19T20:05:43;100080.47;;;20.90;64.87
9523;BME280;63165;43.016;25.784;2023-09-19T20:08:13;100077.88;;;20.89;65.16
9523;BME280;63165;43.016;25.784;2023-09-19T20:10:40;100079.78;;;20.87;65.17
9523;BME280;63165;43.016;25.784;2023-09-19T20:13:08;100079.03;;;20.85;66.03
9523;BME280;63165;43.016;25.784;2023-09-19T20:15:36;100091.47;;;20.84;65.38
9523;BME280;63165;43.016;25.784;2023-09-19T20:18:04;100090.50;;;20.85;65.45
9523;BME280;63165;43.016;25.784;2023-09-19T20:20:32;100094.03;;;20.86;65.61
9523;BME280;63165;43.016;25.784;2023-09-19T20:23:01;100088.03;;;20.82;65.65
9523;BME280;63165;43.016;25.784;2023-09-19T20:25:28;100089.75;;;20.83;66.07
9523;BME280;63165;43.016;25.784;2023-09-19T20:27:55;100093.38;;;20.82;66.49
9523;BME280;63165;43.016;25.784;2023-09-19T20:30:22;100092.41;;;20.83;66.11
9523;BME280;63165;43.016;25.784;2023-09-19T20:32:49;100093.28;;;20.84;65.92
9523;BME280;63165;43.016;25.784;2023-09-19T20:35:16;100099.44;;;20.84;66.46
9523;BME280;63165;43.016;25.784;2023-09-19T20:37:43;100099.53;;;20.83;66.05
9523;BME280;63165;43.016;25.784;2023-09-19T20:40:16;100100.66;;;20.79;66.16
9523;BME280;63165;43.016;25.784;2023-09-19T20:42:46;100108.72;;;20.77;66.25
9523;BME280;63165;43.016;25.784;2023-09-19T20:45:14;100102.72;;;20.73;66.55
9523;BME280;63165;43.016;25.784;2023-09-19T20:47:41;100104.63;;;20.71;67.23
9523;BME280;63165;43.016;25.784;2023-09-19T20:50:08;100103.84;;;20.69;67.15
9523;BME280;63165;43.016;25.784;2023-09-19T20:52:35;100107.44;;;20.68;66.88
9523;BME280;63165;43.016;25.784;2023-09-19T20:55:03;100108.56;;;20.64;67.42
9523;BME280;63165;43.016;25.784;2023-09-19T20:57:31;100101.84;;;20.57;67.56
9523;BME280;63165;43.016;25.784;2023-09-19T20:59:58;100107.28;;;20.55;67.56
9523;BME280;63165;43.016;25.784;2023-09-19T21:02:25;100113.44;;;20.56;67.95
9523;BME280;63165;43.016;25.784;2023-09-19T21:04:53;100116.34;;;20.51;67.52
9523;BME280;63165;43.016;25.784;2023-09-19T21:07:20;100112.00;;;20.50;67.90
9523;BME280;63165;43.016;25.784;2023-09-19T21:09:47;100112.00;;;20.50;68.04
9523;BME280;63165;43.016;25.784;2023-09-19T21:12:14;100111.16;;;20.50;67.90
9523;BME280;63165;43.016;25.784;2023-09-19T21:14:42;100119.28;;;20.47;67.90
9523;BME280;63165;43.016;25.784;2023-09-19T21:17:10;100115.25;;;20.40;68.27
9523;BME280;63165;43.016;25.784;2023-09-19T21:19:37;100113.81;;;20.34;68.13
9523;BME280;63165;43.016;25.784;2023-09-19T21:22:04;100107.97;;;20.27;68.72
9523;BME280;63165;43.016;25.784;2023-09-19T21:24:31;100110.97;;;20.21;68.96
9523;BME280;63165;43.016;25.784;2023-09-19T21:29:37;100113.72;;;20.04;69.23
9523;BME280;63165;43.016;25.784;2023-09-19T21:32:06;100106.25;;;19.94;69.05
9523;BME280;63165;43.016;25.784;2023-09-19T21:34:33;100110.88;;;19.91;69.73
9523;BME280;63165;43.016;25.784;2023-09-19T21:37:01;100120.81;;;19.87;69.70
9523;BME280;63165;43.016;25.784;2023-09-19T21:39:31;100114.94;;;19.81;69.74
9523;BME280;63165;43.016;25.784;2023-09-19T21:41:58;100122.16;;;19.78;69.98
9523;BME280;63165;43.016;25.784;2023-09-19T21:44:26;100126.75;;;19.75;69.66
9523;BME280;63165;43.016;25.784;2023-09-19T21:46:53;100123.56;;;19.68;69.56
9523;BME280;63165;43.016;25.784;2023-09-19T21:49:22;100128.16;;;19.65;70.21
9523;BME280;63165;43.016;25.784;2023-09-19T21:51:49;100133.72;;;19.60;69.90
9523;BME280;63165;43.016;25.784;2023-09-19T21:54:16;100142.84;;;19.54;70.28
9523;BME280;63165;43.016;25.784;2023-09-19T21:56:44;100150.22;;;19.49;70.39
9523;BME280;63165;43.016;25.784;2023-09-19T21:59:13;100148.66;;;19.45;69.96
9523;BME280;63165;43.016;25.784;2023-09-19T22:01:40;100148.03;;;19.40;69.90
9523;BME280;63165;43.016;25.784;2023-09-19T22:04:07;100158.03;;;19.35;70.04